createdAt,value
2022-09-07T00:00:52.811Z,29.17
2022-09-07T00:03:00.275Z,26.80
2022-09-07T00:05:07.565Z,24.67
2022-09-07T00:07:15.004Z,23.90
2022-09-07T00:09:22.031Z,24.25
2022-09-07T00:11:29.162Z,23.08
2022-09-07T00:13:38.809Z,23.10
2022-09-07T00:15:46.134Z,21.67
2022-09-07T00:17:55.315Z,20.75
2022-09-07T00:20:02.497Z,21.05
2022-09-07T00:22:09.741Z,22.13
2022-09-07T00:24:17.077Z,21.35
2022-09-07T00:26:25.695Z,21.40
2022-09-07T00:28:33.435Z,22.13
2022-09-07T00:30:45.329Z,21.85
2022-09-07T00:32:54.597Z,21.08
2022-09-07T00:35:02.145Z,21.92
2022-09-07T00:37:09.429Z,21.83
2022-09-07T00:39:16.608Z,21.85
2022-09-07T00:41:24.809Z,23.58
2022-09-07T00:43:37.328Z,22.50
2022-09-07T00:45:44.665Z,22.25
2022-09-07T00:47:58.849Z,22.63
2022-09-07T00:50:09.723Z,22.17
2022-09-07T00:52:18.704Z,23.60
2022-09-07T00:54:30.889Z,22.50
2022-09-07T00:56:42.478Z,21.42
2022-09-07T00:58:49.499Z,22.77
2022-09-07T01:00:57.146Z,23.15
2022-09-07T01:03:07.453Z,23.73
2022-09-07T01:05:20.743Z,22.33
2022-09-07T01:07:27.854Z,22.92
2022-09-07T01:09:35.244Z,23.42
2022-09-07T01:11:44.891Z,21.98
2022-09-07T01:13:54.008Z,23.75
2022-09-07T01:16:09.543Z,23.52
2022-09-07T01:18:26.258Z,23.35
2022-09-07T01:20:51.546Z,23.83
2022-09-07T01:23:25.205Z,23.17
2022-09-07T01:25:45.188Z,24.98
2022-09-07T01:28:13.014Z,24.85
2022-09-07T01:30:22.795Z,25.17
2022-09-07T01:32:38.578Z,24.35
2022-09-07T01:34:51.875Z,25.55
2022-09-07T01:37:08.193Z,23.92
2022-09-07T01:39:15.331Z,23.70
2022-09-07T01:41:28.396Z,24.33
2022-09-07T01:43:46.741Z,23.63
2022-09-07T01:45:56.269Z,23.77
2022-09-07T01:48:07.772Z,23.30
2022-09-07T01:50:19.034Z,23.73
2022-09-07T01:52:34.471Z,22.92
2022-09-07T01:54:45.325Z,22.90
2022-09-07T01:56:55.330Z,23.00
2022-09-07T01:59:07.728Z,23.05
2022-09-07T02:01:18.769Z,22.77
2022-09-07T02:03:31.612Z,22.42
2022-09-07T02:05:44.431Z,21.90
2022-09-07T02:07:54.428Z,21.13
2022-09-07T02:10:05.957Z,22.35
2022-09-07T02:12:18.060Z,24.10
2022-09-07T02:14:32.423Z,22.30
2022-09-07T02:16:45.631Z,22.42
2022-09-07T02:18:57.032Z,21.33
2022-09-07T02:21:06.702Z,21.98
2022-09-07T02:23:19.327Z,20.83
2022-09-07T02:25:29.719Z,21.35
2022-09-07T02:27:43.461Z,20.23
2022-09-07T02:29:53.256Z,20.10
2022-09-07T02:32:00.648Z,20.02
2022-09-07T02:34:08.272Z,19.00
2022-09-07T02:36:17.964Z,19.20
2022-09-07T02:38:26.179Z,19.13
2022-09-07T02:40:33.456Z,19.77
2022-09-07T02:42:41.922Z,18.90
2022-09-07T02:44:51.448Z,20.08
2022-09-07T02:47:21.579Z,18.95
2022-09-07T02:49:42.065Z,18.40
2022-09-07T02:51:58.459Z,18.77
2022-09-07T02:54:26.074Z,18.63
2022-09-07T02:56:48.717Z,18.65
2022-09-07T02:59:04.454Z,18.30
2022-09-07T03:01:17.390Z,19.10
2022-09-07T03:03:30.078Z,17.85
2022-09-07T03:05:45.662Z,17.65
2022-09-07T03:07:58.731Z,16.95
2022-09-07T03:10:07.597Z,16.95
2022-09-07T03:12:15.545Z,17.70
2022-09-07T03:14:24.823Z,17.80
2022-09-07T03:16:33.643Z,17.85
2022-09-07T03:18:40.890Z,16.58
2022-09-07T03:20:48.540Z,16.67
2022-09-07T03:22:56.320Z,17.33
2022-09-07T03:25:05.444Z,17.50
2022-09-07T03:27:13.449Z,17.42
2022-09-07T03:29:21.257Z,17.38
2022-09-07T03:31:28.628Z,17.98
2022-09-07T03:33:38.322Z,17.50
2022-09-07T03:35:45.651Z,18.20
2022-09-07T03:37:52.885Z,18.13
2022-09-07T03:40:00.621Z,18.10
2022-09-07T03:42:07.766Z,17.30
2022-09-07T03:44:15.199Z,17.02
2022-09-07T03:46:22.599Z,16.85
2022-09-07T03:48:30.196Z,16.67
2022-09-07T03:50:39.305Z,16.42
2022-09-07T03:52:46.654Z,17.27
2022-09-07T03:54:53.878Z,15.48
2022-09-07T03:57:01.523Z,17.20
2022-09-07T03:59:09.206Z,17.45
2022-09-07T04:01:18.486Z,16.50
2022-09-07T04:03:25.772Z,17.35
2022-09-07T04:05:32.853Z,17.75
2022-09-07T04:07:41.874Z,16.35
2022-09-07T04:09:49.059Z,17.25
2022-09-07T04:11:56.351Z,16.45
2022-09-07T04:14:03.623Z,15.98
2022-09-07T04:16:15.991Z,16.52
2022-09-07T04:18:23.364Z,16.65
2022-09-07T04:20:30.902Z,15.25
2022-09-07T04:22:37.987Z,14.95
2022-09-07T04:24:46.766Z,14.95
2022-09-07T04:26:54.087Z,16.13
2022-09-07T04:29:02.189Z,16.02
2022-09-07T04:31:09.982Z,15.60
2022-09-07T04:33:17.903Z,16.17
2022-09-07T04:35:25.081Z,15.88
2022-09-07T04:37:32.251Z,16.27
2022-09-07T04:39:39.342Z,16.15
2022-09-07T04:41:48.051Z,16.08
2022-09-07T04:43:58.195Z,15.02
2022-09-07T04:46:07.230Z,15.35
2022-09-07T04:48:14.510Z,16.42
2022-09-07T04:50:21.991Z,14.98
2022-09-07T04:52:30.466Z,16.65
2022-09-07T04:54:37.742Z,16.45
2022-09-07T04:56:45.029Z,16.48
2022-09-07T04:58:54.763Z,15.38
2022-09-07T05:01:05.475Z,15.57
2022-09-07T05:03:13.137Z,17.07
2022-09-07T05:05:20.356Z,15.60
2022-09-07T05:07:27.701Z,16.00
2022-09-07T05:09:34.981Z,15.18
2022-09-07T05:11:42.431Z,15.40
2022-09-07T05:13:49.797Z,15.50
2022-09-07T05:15:59.028Z,15.60
2022-09-07T05:18:06.828Z,14.93
2022-09-07T05:20:18.406Z,15.13
2022-09-07T05:22:28.062Z,15.70
2022-09-07T05:24:37.891Z,16.02
2022-09-07T05:26:45.184Z,15.23
2022-09-07T05:31:24.114Z,15.55
2022-09-07T05:36:01.326Z,20.15
2022-09-07T05:38:08.697Z,16.85
2022-09-07T05:40:16.653Z,16.25
2022-09-07T05:42:23.793Z,16.75
2022-09-07T05:44:48.113Z,17.92
2022-09-07T05:46:58.062Z,16.90
2022-09-07T05:49:05.808Z,17.38
2022-09-07T05:51:13.598Z,16.52
2022-09-07T05:53:21.141Z,16.13
2022-09-07T05:55:30.447Z,16.23
2022-09-07T05:57:38.015Z,20.00
2022-09-07T05:59:45.245Z,17.17
2022-09-07T06:01:52.676Z,17.60
2022-09-07T06:04:01.554Z,16.42
2022-09-07T06:06:13.048Z,15.82
2022-09-07T06:08:20.167Z,16.52
2022-09-07T06:12:50.110Z,17.77
2022-09-07T06:14:57.197Z,31.42
2022-09-07T06:17:04.307Z,18.63
2022-09-07T06:19:13.076Z,15.27
2022-09-07T06:21:21.688Z,14.57
2022-09-07T06:23:29.142Z,15.02
2022-09-07T06:25:36.518Z,14.48
2022-09-07T06:27:43.910Z,14.85
2022-09-07T06:29:51.029Z,15.32
2022-09-07T06:34:27.870Z,16.48
2022-09-07T06:36:35.156Z,15.48
2022-09-07T06:38:42.895Z,15.57
2022-09-07T06:40:50.309Z,16.23
2022-09-07T06:42:57.674Z,15.93
2022-09-07T06:45:05.220Z,15.75
2022-09-07T06:47:12.452Z,15.80
2022-09-07T06:49:19.882Z,16.55
2022-09-07T06:51:29.734Z,16.00
2022-09-07T06:53:40.477Z,14.45
2022-09-07T06:55:50.181Z,14.68
2022-09-07T06:57:57.720Z,15.63
2022-09-07T07:00:04.854Z,17.60
2022-09-07T07:02:16.130Z,15.48
2022-09-07T07:04:23.360Z,15.32
2022-09-07T07:06:39.610Z,15.52
2022-09-07T07:08:46.946Z,15.55
2022-09-07T07:10:55.148Z,14.55
2022-09-07T07:13:02.380Z,16.80
2022-09-07T07:15:10.686Z,16.33
2022-09-07T07:17:17.971Z,18.38
2022-09-07T07:19:25.256Z,18.73
2022-09-07T07:21:48.567Z,19.67
2022-09-07T07:24:06.230Z,23.02
2022-09-07T07:26:16.666Z,22.25
2022-09-07T07:30:59.135Z,16.73
2022-09-07T07:33:07.229Z,16.30
2022-09-07T07:35:15.223Z,14.43
2022-09-07T07:37:28.053Z,16.45
2022-09-07T07:42:05.889Z,15.07
2022-09-07T07:44:14.535Z,16.33
2022-09-07T07:46:21.794Z,15.10
2022-09-07T07:48:29.392Z,16.10
2022-09-07T07:50:36.533Z,16.35
2022-09-07T07:53:41.299Z,15.25
2022-09-07T07:55:43.534Z,16.35
2022-09-07T07:57:41.181Z,14.93
2022-09-07T07:59:50.322Z,14.70
2022-09-07T08:01:57.564Z,14.60
2022-09-07T08:04:04.982Z,15.05
2022-09-07T08:06:16.932Z,14.88
2022-09-07T08:10:32.203Z,14.68
2022-09-07T08:12:40.533Z,15.55
2022-09-07T08:14:48.206Z,15.52
2022-09-07T08:16:55.389Z,16.23
2022-09-07T08:19:03.079Z,16.02
2022-09-07T08:21:12.829Z,15.48
2022-09-07T08:23:21.545Z,16.73
2022-09-07T08:25:29.540Z,17.85
2022-09-07T08:27:38.568Z,17.95
2022-09-07T08:29:45.436Z,18.17
2022-09-07T08:31:52.466Z,19.45
2022-09-07T08:33:59.494Z,16.98
2022-09-07T08:36:08.882Z,17.42
2022-09-07T08:38:20.454Z,17.92
2022-09-07T08:40:28.023Z,18.08
2022-09-07T08:42:58.851Z,18.13
2022-09-07T08:45:09.399Z,19.42
2022-09-07T08:47:26.776Z,20.88
2022-09-07T08:49:46.050Z,18.23
2022-09-07T08:51:58.293Z,18.27
2022-09-07T08:54:06.089Z,20.27
2022-09-07T08:56:20.947Z,31.77
2022-09-07T08:58:51.151Z,22.95
2022-09-07T09:03:30.024Z,19.02
2022-09-07T09:05:45.828Z,19.50
2022-09-07T09:08:05.924Z,19.65
2022-09-07T09:10:28.922Z,18.63
2022-09-07T09:12:58.176Z,19.27
2022-09-07T09:15:22.304Z,18.75
2022-09-07T09:17:34.807Z,19.15
2022-09-07T09:20:01.755Z,20.05
2022-09-07T09:22:14.946Z,18.92
2022-09-07T09:24:23.539Z,19.17
2022-09-07T09:26:31.953Z,18.65
2022-09-07T09:28:39.348Z,18.17
2022-09-07T09:30:48.881Z,19.38
2022-09-07T09:33:14.743Z,19.40
2022-09-07T09:35:29.502Z,19.83
2022-09-07T09:37:41.349Z,20.38
2022-09-07T09:39:50.994Z,19.27
2022-09-07T09:42:04.925Z,21.83
2022-09-07T09:44:20.758Z,21.23
2022-09-07T09:46:31.716Z,21.08
2022-09-07T09:48:41.167Z,20.00
2022-09-07T09:55:37.952Z,19.50
2022-09-07T10:00:29.206Z,19.77
2022-09-07T10:05:18.799Z,20.60
2022-09-07T10:07:29.310Z,23.83
2022-09-07T10:09:39.616Z,22.67
2022-09-07T10:14:22.402Z,21.88
2022-09-07T10:16:42.327Z,22.05
2022-09-07T10:19:01.691Z,21.63
2022-09-07T10:21:27.054Z,21.55
2022-09-07T10:23:33.978Z,20.95
2022-09-07T10:25:42.335Z,21.67
2022-09-07T10:27:49.470Z,21.17
2022-09-07T10:29:57.259Z,20.65
2022-09-07T10:32:25.789Z,19.80
2022-09-07T10:34:44.660Z,19.13
2022-09-07T10:37:00.085Z,19.85
2022-09-07T10:39:11.811Z,20.75
2022-09-07T10:41:22.537Z,20.02
2022-09-07T10:43:46.198Z,21.50
2022-09-07T10:49:09.115Z,20.88
2022-09-07T10:53:45.829Z,25.88
2022-09-07T10:56:03.023Z,26.85
2022-09-07T10:59:01.319Z,27.83
2022-09-07T11:01:03.205Z,35.25
2022-09-07T11:03:27.739Z,37.35
2022-09-07T11:05:43.734Z,31.83
2022-09-07T11:08:05.760Z,26.85
2022-09-07T11:10:24.674Z,22.58
2022-09-07T11:12:35.076Z,21.83
2022-09-07T11:14:47.894Z,21.65
2022-09-07T11:16:58.944Z,20.92
2022-09-07T11:21:57.526Z,22.08
2022-09-07T11:24:12.016Z,22.83
2022-09-07T11:26:23.499Z,24.33
2022-09-07T11:30:43.848Z,23.42
2022-09-07T11:33:01.792Z,25.60
2022-09-07T11:35:18.641Z,24.17
2022-09-07T11:37:31.507Z,24.58
2022-09-07T11:39:44.964Z,26.10
2022-09-07T11:41:57.512Z,25.60
2022-09-07T11:44:09.489Z,25.88
2022-09-07T11:46:22.680Z,28.50
2022-09-07T11:48:33.292Z,27.15
2022-09-07T11:50:47.374Z,27.45
2022-09-07T11:52:57.420Z,26.73
2022-09-07T11:55:09.664Z,25.48
2022-09-07T11:57:39.681Z,26.17
2022-09-07T11:59:58.331Z,27.05
2022-09-07T12:02:48.460Z,27.42
2022-09-07T12:05:06.303Z,28.35
2022-09-07T12:07:51.836Z,27.27
2022-09-07T12:10:47.253Z,27.60
2022-09-07T12:13:25.048Z,28.83
2022-09-07T12:15:40.565Z,27.80
2022-09-07T12:18:02.091Z,28.85
2022-09-07T12:20:20.328Z,29.35
2022-09-07T12:22:27.768Z,28.85
2022-09-07T12:24:45.601Z,28.60
2022-09-07T12:26:57.392Z,29.95
2022-09-07T12:29:24.598Z,28.25
2022-09-07T12:32:00.673Z,28.65
2022-09-07T12:34:53.249Z,30.47
2022-09-07T12:37:00.435Z,30.63
2022-09-07T12:39:22.877Z,30.55
2022-09-07T12:41:48.830Z,31.65
2022-09-07T12:44:17.628Z,30.38
2022-09-07T12:46:52.047Z,30.15
2022-09-07T12:49:06.240Z,29.88
2022-09-07T12:51:59.287Z,29.80
2022-09-07T12:53:57.534Z,32.00
2022-09-07T12:56:25.209Z,32.13
2022-09-07T12:58:44.090Z,32.60
2022-09-07T13:01:10.238Z,34.85
2022-09-07T13:06:06.058Z,35.55
2022-09-07T13:08:44.570Z,34.20
2022-09-07T13:10:52.012Z,33.75
2022-09-07T13:13:04.561Z,33.95
2022-09-07T13:15:34.622Z,33.95
2022-09-07T13:17:58.464Z,35.72
2022-09-07T13:20:21.206Z,34.13
2022-09-07T13:22:58.690Z,34.83
2022-09-07T13:25:49.494Z,36.83
2022-09-07T13:27:58.404Z,39.55
2022-09-07T13:30:22.700Z,38.65
2022-09-07T13:35:09.662Z,39.72
2022-09-07T13:37:22.395Z,40.20
2022-09-07T13:39:31.182Z,42.75
2022-09-07T13:41:44.175Z,42.00
2022-09-07T13:43:52.539Z,43.08
2022-09-07T13:46:04.545Z,58.90
2022-09-07T13:48:20.879Z,57.85
2022-09-07T13:50:41.018Z,54.70
2022-09-07T13:53:09.345Z,54.72
2022-09-07T13:55:29.274Z,52.85
2022-09-07T13:57:46.851Z,57.95
2022-09-07T13:59:55.621Z,66.38
2022-09-07T14:02:02.779Z,66.45
2022-09-07T14:04:10.589Z,67.45
2022-09-07T14:06:29.910Z,63.70
2022-09-07T14:08:39.736Z,62.92
2022-09-07T14:10:51.946Z,62.45
2022-09-07T14:15:23.005Z,57.40
2022-09-07T14:17:32.387Z,53.97
2022-09-07T14:19:42.077Z,53.53
2022-09-07T14:22:01.549Z,51.53
2022-09-07T14:24:17.538Z,51.67
2022-09-07T14:26:25.898Z,52.22
2022-09-07T14:28:34.765Z,50.10
2022-09-07T14:30:43.104Z,51.38
2022-09-07T14:32:52.690Z,49.35
2022-09-07T14:34:59.592Z,49.17
2022-09-07T14:37:16.344Z,51.17
2022-09-07T14:39:25.424Z,50.50
2022-09-07T14:41:35.163Z,49.50
2022-09-07T14:43:53.608Z,49.75
2022-09-07T14:46:15.492Z,45.92
2022-09-07T14:48:32.386Z,43.22
2022-09-07T14:50:43.298Z,43.90
2022-09-07T14:55:32.546Z,42.78
2022-09-07T14:57:39.526Z,43.05
2022-09-07T14:59:47.528Z,41.92
2022-09-07T15:01:54.614Z,41.58
2022-09-07T15:04:03.516Z,42.20
2022-09-07T15:07:01.004Z,42.33
2022-09-07T15:08:46.714Z,41.92
2022-09-07T15:13:35.889Z,42.88
2022-09-07T15:15:47.585Z,41.25
2022-09-07T15:17:58.920Z,42.92
2022-09-07T15:20:35.901Z,43.00
2022-09-07T15:22:42.818Z,43.13
2022-09-07T15:24:52.971Z,42.08
2022-09-07T15:27:03.155Z,44.25
2022-09-07T15:29:11.572Z,43.85
2022-09-07T15:33:48.025Z,42.67
2022-09-07T15:35:55.855Z,43.08
2022-09-07T15:38:05.039Z,42.65
2022-09-07T15:40:20.564Z,42.42
2022-09-07T15:44:54.746Z,40.92
2022-09-07T15:49:30.145Z,41.15
2022-09-07T15:54:11.452Z,43.03
2022-09-07T15:56:21.386Z,42.03
2022-09-07T15:58:28.503Z,41.08
2022-09-07T16:00:36.209Z,41.78
2022-09-07T16:05:11.365Z,43.78
2022-09-07T16:07:18.655Z,42.53
2022-09-07T16:09:25.523Z,45.25
2022-09-07T16:11:35.286Z,45.38
2022-09-07T16:13:42.797Z,47.35
2022-09-07T16:15:50.545Z,46.47
2022-09-07T16:17:57.631Z,47.28
2022-09-07T16:20:04.807Z,46.38
2022-09-07T16:23:13.274Z,47.13
2022-09-07T16:24:39.035Z,45.40
2022-09-07T16:26:47.857Z,43.17
2022-09-07T16:28:56.828Z,43.38
2022-09-07T16:31:07.955Z,43.65
2022-09-07T16:33:14.929Z,44.65
2022-09-07T16:35:22.012Z,44.13
2022-09-07T16:37:28.886Z,44.17
2022-09-07T16:39:35.828Z,44.05
2022-09-07T16:41:43.556Z,45.42
2022-09-07T16:43:52.580Z,46.33
2022-09-07T16:46:06.655Z,45.95
2022-09-07T16:48:13.907Z,47.83
2022-09-07T16:50:20.779Z,45.45
2022-09-07T16:52:27.914Z,46.05
2022-09-07T16:54:34.891Z,46.75
2022-09-07T16:56:42.070Z,45.28
2022-09-07T16:58:52.241Z,45.53
2022-09-07T17:00:59.602Z,45.03
2022-09-07T17:03:06.531Z,43.40
2022-09-07T17:05:13.817Z,43.83
2022-09-07T17:07:20.800Z,44.10
2022-09-07T17:09:29.820Z,44.38
2022-09-07T17:11:38.486Z,44.55
2022-09-07T17:13:46.642Z,46.20
2022-09-07T17:15:55.207Z,46.92
2022-09-07T17:18:02.182Z,45.00
2022-09-07T17:20:09.981Z,45.40
2022-09-07T17:22:17.004Z,45.35
2022-09-07T17:24:23.888Z,44.70
2022-09-07T17:26:30.955Z,43.75
2022-09-07T17:28:38.448Z,43.83
2022-09-07T17:30:45.229Z,43.72
2022-09-07T17:32:54.337Z,43.55
2022-09-07T17:35:01.681Z,41.25
2022-09-07T17:37:09.386Z,42.03
2022-09-07T17:39:18.801Z,41.13
2022-09-07T17:41:27.888Z,40.53
2022-09-07T17:43:45.733Z,39.20
2022-09-07T17:45:52.990Z,40.42
2022-09-07T17:48:01.673Z,38.22
2022-09-07T17:50:09.624Z,39.50
2022-09-07T17:52:16.849Z,39.38
2022-09-07T17:54:25.011Z,39.33
2022-09-07T17:56:32.439Z,38.78
2022-09-07T17:58:39.878Z,39.15
2022-09-07T18:00:47.185Z,39.63
2022-09-07T18:02:54.249Z,39.15
2022-09-07T18:05:03.424Z,37.05
2022-09-07T18:07:10.351Z,36.58
2022-09-07T18:09:17.636Z,36.70
2022-09-07T18:13:56.633Z,38.65
2022-09-07T18:16:04.226Z,37.95
2022-09-07T18:18:13.543Z,36.80
2022-09-07T18:20:23.848Z,37.63
2022-09-07T18:22:30.982Z,35.88
2022-09-07T18:24:38.166Z,35.40
2022-09-07T18:26:49.971Z,36.05
2022-09-07T18:29:13.005Z,34.45
2022-09-07T18:31:20.498Z,35.38
2022-09-07T18:33:27.521Z,36.40
2022-09-07T18:35:36.443Z,37.33
2022-09-07T18:37:43.475Z,35.55
2022-09-07T18:39:50.935Z,36.05
2022-09-07T18:41:58.305Z,35.00
2022-09-07T18:45:26.921Z,36.15
2022-09-07T18:46:32.773Z,37.10
2022-09-07T18:48:40.015Z,35.38
2022-09-07T18:50:50.504Z,36.67
2022-09-07T18:53:07.183Z,35.60
2022-09-07T18:55:23.928Z,33.53
2022-09-07T18:57:30.959Z,35.47
2022-09-07T18:59:38.040Z,34.78
2022-09-07T19:01:44.888Z,34.35
2022-09-07T19:03:57.624Z,34.30
2022-09-07T19:06:08.390Z,33.95
2022-09-07T19:08:15.580Z,34.08
2022-09-07T19:10:22.601Z,34.03
2022-09-07T19:12:29.841Z,33.15
2022-09-07T19:14:36.818Z,34.65
2022-09-07T19:16:46.018Z,35.00
2022-09-07T19:18:54.870Z,34.40
2022-09-07T19:21:12.327Z,34.20
2022-09-07T19:23:22.333Z,34.25
2022-09-07T19:25:29.874Z,33.65
2022-09-07T19:27:37.107Z,33.58
2022-09-07T19:29:43.878Z,33.00
2022-09-07T19:32:05.260Z,33.10
2022-09-07T19:34:13.602Z,34.00
2022-09-07T19:36:22.423Z,33.03
2022-09-07T19:38:29.603Z,33.45
2022-09-07T19:40:36.528Z,32.20
2022-09-07T19:42:43.455Z,32.92
2022-09-07T19:44:50.483Z,33.40
2022-09-07T19:46:57.452Z,32.15
2022-09-07T19:49:05.916Z,33.65
2022-09-07T19:51:15.252Z,35.20
2022-09-07T19:53:24.077Z,34.33
2022-09-07T19:55:31.302Z,32.40
2022-09-07T19:57:38.231Z,33.35
2022-09-07T19:59:46.793Z,32.38
2022-09-07T20:01:54.940Z,32.90
2022-09-07T20:04:03.581Z,34.83
2022-09-07T20:06:11.976Z,33.95
2022-09-07T20:08:19.306Z,32.90
2022-09-07T20:10:28.131Z,33.35
2022-09-07T20:12:35.155Z,32.35
2022-09-07T20:14:42.698Z,33.17
2022-09-07T20:16:49.621Z,34.80
2022-09-07T20:18:56.962Z,34.97
2022-09-07T20:21:08.133Z,34.13
2022-09-07T20:23:15.062Z,34.08
2022-09-07T20:25:21.833Z,34.10
2022-09-07T20:27:31.674Z,34.50
2022-09-07T20:29:38.699Z,35.50
2022-09-07T20:31:45.724Z,32.47
2022-09-07T20:33:53.169Z,31.55
2022-09-07T20:36:06.390Z,33.10
2022-09-07T20:38:13.571Z,32.58
2022-09-07T20:40:20.479Z,32.75
2022-09-07T20:42:27.679Z,33.47
2022-09-07T20:44:36.498Z,32.65
2022-09-07T20:46:43.855Z,34.88
2022-09-07T20:48:51.275Z,32.58
2022-09-07T20:51:02.448Z,34.03
2022-09-07T20:53:09.939Z,32.80
2022-09-07T20:55:17.328Z,34.25
2022-09-07T20:57:24.352Z,33.95
2022-09-07T20:59:31.379Z,33.20
2022-09-07T21:01:40.267Z,35.15
2022-09-07T21:03:49.572Z,35.13
2022-09-07T21:05:56.977Z,33.90
2022-09-07T21:08:03.996Z,33.40
2022-09-07T21:10:12.050Z,33.00
2022-09-07T21:12:18.876Z,33.15
2022-09-07T21:14:26.063Z,33.83
2022-09-07T21:16:33.406Z,32.58
2022-09-07T21:18:43.029Z,32.88
2022-09-07T21:21:18.734Z,31.50
2022-09-07T21:23:26.431Z,33.45
2022-09-07T21:25:33.350Z,33.15
2022-09-07T21:27:41.148Z,33.05
2022-09-07T21:29:48.070Z,33.80
2022-09-07T21:31:56.985Z,34.28
2022-09-07T21:34:06.224Z,34.55
2022-09-07T21:36:15.234Z,34.70
2022-09-07T21:38:22.478Z,33.00
2022-09-07T21:40:29.358Z,34.08
2022-09-07T21:42:36.494Z,33.35
2022-09-07T21:44:43.308Z,33.05
2022-09-07T21:46:50.263Z,33.60
2022-09-07T21:48:57.771Z,34.33
2022-09-07T21:51:07.056Z,35.83
2022-09-07T21:53:14.696Z,36.22
2022-09-07T21:55:21.826Z,36.33
2022-09-07T21:57:28.753Z,36.60
2022-09-07T21:59:35.725Z,36.13
2022-09-07T22:01:43.743Z,35.72
2022-09-07T22:03:52.087Z,36.45
2022-09-07T22:05:59.224Z,34.17
2022-09-07T22:08:08.045Z,35.60
2022-09-07T22:10:15.379Z,35.90
2022-09-07T22:12:22.251Z,37.00
2022-09-07T22:14:29.386Z,37.05
2022-09-07T22:16:37.805Z,36.17
2022-09-07T22:18:47.381Z,36.15
2022-09-07T22:21:03.423Z,35.90
2022-09-07T22:23:12.288Z,37.22
2022-09-07T22:25:19.321Z,36.28
2022-09-07T22:27:26.291Z,37.88
2022-09-07T22:29:33.377Z,36.42
2022-09-07T22:31:41.422Z,36.78
2022-09-07T22:33:49.736Z,35.63
2022-09-07T22:35:56.608Z,35.03
2022-09-07T22:38:03.537Z,36.42
2022-09-07T22:40:13.350Z,36.45
2022-09-07T22:42:20.514Z,36.55
2022-09-07T22:44:28.712Z,36.42
2022-09-07T22:46:39.415Z,38.40
2022-09-07T22:48:46.711Z,34.35
2022-09-07T22:50:58.606Z,35.20
2022-09-07T22:55:13.787Z,35.53
2022-09-07T22:57:20.769Z,33.22
2022-09-07T22:59:27.999Z,34.80
2022-09-07T23:01:35.801Z,36.05
2022-09-07T23:03:43.168Z,33.70
2022-09-07T23:05:50.279Z,33.83
2022-09-07T23:07:57.393Z,34.67
2022-09-07T23:10:04.313Z,33.92
2022-09-07T23:12:13.186Z,34.22
2022-09-07T23:14:25.180Z,34.33
2022-09-07T23:16:32.877Z,32.70
2022-09-07T23:18:41.593Z,32.78
2022-09-07T23:20:49.030Z,32.20
2022-09-07T23:22:56.163Z,33.22
2022-09-07T23:25:03.393Z,32.03
2022-09-07T23:27:25.373Z,33.00
2022-09-07T23:32:05.593Z,33.17
2022-09-07T23:34:13.075Z,34.10
2022-09-07T23:36:20.677Z,32.75
2022-09-07T23:38:28.258Z,34.50
2022-09-07T23:40:35.545Z,32.15
2022-09-07T23:42:43.961Z,32.22
2022-09-07T23:44:51.134Z,32.63
2022-09-07T23:46:58.066Z,31.80
2022-09-07T23:49:05.192Z,33.15
2022-09-07T23:51:12.479Z,31.55
2022-09-07T23:53:19.760Z,32.78
2022-09-07T23:55:26.940Z,31.77
2022-09-07T23:57:34.790Z,33.28
2022-09-07T23:59:43.505Z,31.73
